sensor_id;sensor_type;location;lat;lon;timestamp;pressure;altitude;pressure_sealevel;temperature;humidity
59487;BME280;45298;54.918;73.504;2023-08-21T00:01:42;100266.09;;;7.43;84.81
59487;BME280;45298;54.918;73.504;2023-08-21T00:04:11;100325.63;;;7.69;84.93
59487;BME280;45298;54.918;73.504;2023-08-21T00:06:40;100304.78;;;7.63;85.55
59487;BME280;45298;54.918;73.504;2023-08-21T00:09:08;100317.63;;;7.70;85.14
59487;BME280;45298;54.918;73.504;2023-08-21T00:11:37;100274.72;;;7.46;84.88
59487;BME280;45298;54.918;73.504;2023-08-21T00:14:06;100332.84;;;7.84;85.28
59487;BME280;45298;54.918;73.504;2023-08-21T00:16:34;100302.44;;;7.76;84.64
59487;BME280;45298;54.918;73.504;2023-08-21T00:19:03;100325.44;;;7.93;85.28
59487;BME280;45298;54.918;73.504;2023-08-21T00:21:32;100321.91;;;7.92;85.11
59487;BME280;45298;54.918;73.504;2023-08-21T00:24:01;100317.78;;;7.86;84.76
59487;BME280;45298;54.918;73.504;2023-08-21T00:26:29;100335.06;;;7.94;85.19
59487;BME280;45298;54.918;73.504;2023-08-21T00:28:58;100326.63;;;7.85;84.79
59487;BME280;45298;54.918;73.504;2023-08-21T00:31:27;100315.19;;;7.85;84.91
59487;BME280;45298;54.918;73.504;2023-08-21T00:33:56;100335.22;;;7.91;85.23
59487;BME280;45298;54.918;73.504;2023-08-21T00:36:25;100327.56;;;7.84;85.59
59487;BME280;45298;54.918;73.504;2023-08-21T00:38:54;100315.41;;;7.80;85.26
59487;BME280;45298;54.918;73.504;2023-08-21T00:41:22;100316.47;;;7.76;85.67
59487;BME280;45298;54.918;73.504;2023-08-21T00:43:51;100331.47;;;7.95;85.38
59487;BME280;45298;54.918;73.504;2023-08-21T00:46:20;100319.38;;;7.91;85.63
59487;BME280;45298;54.918;73.504;2023-08-21T00:48:49;100304.34;;;7.91;86.55
59487;BME280;45298;54.918;73.504;2023-08-21T00:51:17;100329.06;;;8.09;86.19
59487;BME280;45298;54.918;73.504;2023-08-21T00:53:46;100314.94;;;8.10;86.83
59487;BME280;45298;54.918;73.504;2023-08-21T00:56:15;100317.97;;;8.20;86.58
59487;BME280;45298;54.918;73.504;2023-08-21T00:58:44;100333.88;;;8.38;86.75
59487;BME280;45298;54.918;73.504;2023-08-21T01:01:14;100318.72;;;8.41;87.72
59487;BME280;45298;54.918;73.504;2023-08-21T01:03:46;100320.78;;;8.54;87.66
59487;BME280;45298;54.918;73.504;2023-08-21T01:06:16;100316.00;;;8.62;87.20
59487;BME280;45298;54.918;73.504;2023-08-21T01:11:55;100328.63;;;8.92;88.31
59487;BME280;45298;54.918;73.504;2023-08-21T01:14:50;100328.00;;;9.04;88.24
59487;BME280;45298;54.918;73.504;2023-08-21T01:17:19;100335.38;;;9.15;88.00
59487;BME280;45298;54.918;73.504;2023-08-21T01:19:52;100296.09;;;9.07;88.51
59487;BME280;45298;54.918;73.504;2023-08-21T01:22:35;100324.88;;;9.31;88.21
59487;BME280;45298;54.918;73.504;2023-08-21T01:25:06;100320.78;;;9.42;88.76
59487;BME280;45298;54.918;73.504;2023-08-21T01:27:35;100318.59;;;9.50;88.41
59487;BME280;45298;54.918;73.504;2023-08-21T01:30:05;100333.50;;;9.68;88.40
59487;BME280;45298;54.918;73.504;2023-08-21T01:35:25;100319.47;;;9.82;88.90
59487;BME280;45298;54.918;73.504;2023-08-21T01:37:55;100318.75;;;10.12;88.86
59487;BME280;45298;54.918;73.504;2023-08-21T01:40:24;100324.22;;;11.62;86.14
59487;BME280;45298;54.918;73.504;2023-08-21T01:42:53;100317.94;;;13.14;82.84
59487;BME280;45298;54.918;73.504;2023-08-21T01:45:22;100290.44;;;14.16;80.00
59487;BME280;45298;54.918;73.504;2023-08-21T01:47:51;100339.38;;;15.59;77.05
59487;BME280;45298;54.918;73.504;2023-08-21T01:50:20;100292.25;;;16.25;73.58
59487;BME280;45298;54.918;73.504;2023-08-21T01:52:49;100287.09;;;16.98;71.82
59487;BME280;45298;54.918;73.504;2023-08-21T01:55:20;100340.81;;;18.01;69.31
59487;BME280;45298;54.918;73.504;2023-08-21T01:57:49;100336.69;;;18.48;67.41
59487;BME280;45298;54.918;73.504;2023-08-21T02:00:17;100341.50;;;19.03;65.61
59487;BME280;45298;54.918;73.504;2023-08-21T02:02:46;100329.59;;;19.35;64.11
59487;BME280;45298;54.918;73.504;2023-08-21T02:05:15;100337.53;;;19.74;63.43
59487;BME280;45298;54.918;73.504;2023-08-21T02:07:44;100336.06;;;20.18;61.89
59487;BME280;45298;54.918;73.504;2023-08-21T02:10:14;100319.16;;;19.98;61.11
59487;BME280;45298;54.918;73.504;2023-08-21T02:12:42;100339.91;;;20.15;60.57
59487;BME280;45298;54.918;73.504;2023-08-21T02:15:12;100340.53;;;20.27;60.12
59487;BME280;45298;54.918;73.504;2023-08-21T02:17:41;100342.34;;;20.54;59.40
59487;BME280;45298;54.918;73.504;2023-08-21T02:20:13;100341.91;;;20.77;58.10
59487;BME280;45298;54.918;73.504;2023-08-21T02:22:41;100339.00;;;20.89;57.84
59487;BME280;45298;54.918;73.504;2023-08-21T02:25:10;100284.53;;;20.67;57.20
59487;BME280;45298;54.918;73.504;2023-08-21T02:27:40;100332.03;;;21.04;56.96
59487;BME280;45298;54.918;73.504;2023-08-21T02:30:10;100307.69;;;20.96;56.64
59487;BME280;45298;54.918;73.504;2023-08-21T02:32:39;100313.47;;;21.01;56.11
59487;BME280;45298;54.918;73.504;2023-08-21T02:35:08;100249.19;;;20.34;56.50
59487;BME280;45298;54.918;73.504;2023-08-21T02:37:37;100314.34;;;20.83;56.62
59487;BME280;45298;54.918;73.504;2023-08-21T02:40:07;100329.47;;;21.03;56.22
59487;BME280;45298;54.918;73.504;2023-08-21T02:42:37;100328.13;;;20.98;55.90
59487;BME280;45298;54.918;73.504;2023-08-21T02:45:07;100323.88;;;20.96;55.42
59487;BME280;45298;54.918;73.504;2023-08-21T02:47:39;100321.88;;;20.98;54.66
59487;BME280;45298;54.918;73.504;2023-08-21T02:50:09;100321.13;;;20.88;54.50
59487;BME280;45298;54.918;73.504;2023-08-21T02:52:38;100336.03;;;21.00;54.54
59487;BME280;45298;54.918;73.504;2023-08-21T02:55:08;100293.41;;;20.77;54.79
59487;BME280;45298;54.918;73.504;2023-08-21T02:57:36;100334.97;;;20.93;54.23
59487;BME280;45298;54.918;73.504;2023-08-21T03:00:06;100328.66;;;20.66;55.12
59487;BME280;45298;54.918;73.504;2023-08-21T03:02:36;100317.22;;;20.36;54.07
59487;BME280;45298;54.918;73.504;2023-08-21T03:05:06;100326.66;;;20.22;54.50
59487;BME280;45298;54.918;73.504;2023-08-21T03:07:37;100327.78;;;20.29;55.11
59487;BME280;45298;54.918;73.504;2023-08-21T03:10:06;100326.84;;;20.20;54.58
59487;BME280;45298;54.918;73.504;2023-08-21T03:12:36;100332.97;;;20.13;55.31
59487;BME280;45298;54.918;73.504;2023-08-21T03:15:05;100292.00;;;19.91;54.84
59487;BME280;45298;54.918;73.504;2023-08-21T03:17:35;100336.63;;;20.21;54.31
59487;BME280;45298;54.918;73.504;2023-08-21T03:20:04;100327.06;;;20.09;54.23
59487;BME280;45298;54.918;73.504;2023-08-21T03:22:34;100328.19;;;20.06;54.98
59487;BME280;45298;54.918;73.504;2023-08-21T03:25:04;100323.84;;;19.96;55.43
59487;BME280;45298;54.918;73.504;2023-08-21T03:27:33;100334.72;;;20.04;54.83
59487;BME280;45298;54.918;73.504;2023-08-21T03:30:04;100329.59;;;20.11;55.27
59487;BME280;45298;54.918;73.504;2023-08-21T03:32:36;100323.53;;;20.27;54.79
59487;BME280;45298;54.918;73.504;2023-08-21T03:35:06;100340.72;;;20.44;54.53
59487;BME280;45298;54.918;73.504;2023-08-21T03:37:35;100334.25;;;20.36;53.87
59487;BME280;45298;54.918;73.504;2023-08-21T03:40:07;100331.19;;;20.49;54.15
59487;BME280;45298;54.918;73.504;2023-08-21T03:42:36;100329.94;;;20.62;54.03
59487;BME280;45298;54.918;73.504;2023-08-21T03:45:07;100318.00;;;20.64;52.96
59487;BME280;45298;54.918;73.504;2023-08-21T03:47:36;100311.44;;;20.77;52.51
59487;BME280;45298;54.918;73.504;2023-08-21T03:50:10;100314.97;;;20.77;53.24
59487;BME280;45298;54.918;73.504;2023-08-21T03:52:40;100274.53;;;20.77;52.54
59487;BME280;45298;54.918;73.504;2023-08-21T03:55:09;100299.28;;;20.99;52.95
59487;BME280;45298;54.918;73.504;2023-08-21T03:57:38;100302.47;;;20.76;52.70
59487;BME280;45298;54.918;73.504;2023-08-21T04:00:07;100309.63;;;20.49;53.12
59487;BME280;45298;54.918;73.504;2023-08-21T04:02:43;100312.63;;;20.46;52.19
59487;BME280;45298;54.918;73.504;2023-08-21T04:05:13;100302.38;;;20.32;52.51
59487;BME280;45298;54.918;73.504;2023-08-21T04:07:42;100296.56;;;19.90;52.66
59487;BME280;45298;54.918;73.504;2023-08-21T04:10:11;100307.75;;;19.76;53.47
59487;BME280;45298;54.918;73.504;2023-08-21T04:12:40;100266.38;;;19.59;53.45
59487;BME280;45298;54.918;73.504;2023-08-21T04:15:09;100291.47;;;19.87;52.95
59487;BME280;45298;54.918;73.504;2023-08-21T04:17:38;100256.72;;;19.56;53.62
59487;BME280;45298;54.918;73.504;2023-08-21T04:20:07;100304.31;;;19.84;53.47
59487;BME280;45298;54.918;73.504;2023-08-21T04:22:36;100291.25;;;19.71;53.53
59487;BME280;45298;54.918;73.504;2023-08-21T04:25:05;100285.91;;;19.61;54.18
59487;BME280;45298;54.918;73.504;2023-08-21T04:27:35;100255.00;;;19.65;53.25
59487;BME280;45298;54.918;73.504;2023-08-21T04:30:04;100290.72;;;20.13;52.65
59487;BME280;45298;54.918;73.504;2023-08-21T04:32:34;100285.91;;;20.35;52.92
59487;BME280;45298;54.918;73.504;2023-08-21T04:35:04;100281.44;;;20.44;53.08
59487;BME280;45298;54.918;73.504;2023-08-21T04:37:33;100281.13;;;20.47;52.14
59487;BME280;45298;54.918;73.504;2023-08-21T04:40:05;100282.97;;;20.10;52.41
59487;BME280;45298;54.918;73.504;2023-08-21T04:42:34;100283.41;;;20.05;52.74
59487;BME280;45298;54.918;73.504;2023-08-21T04:45:04;100260.09;;;20.14;52.72
59487;BME280;45298;54.918;73.504;2023-08-21T04:47:36;100279.53;;;20.36;52.66
59487;BME280;45298;54.918;73.504;2023-08-21T04:50:05;100259.44;;;20.30;52.26
59487;BME280;45298;54.918;73.504;2023-08-21T04:52:34;100278.59;;;20.63;52.28
59487;BME280;45298;54.918;73.504;2023-08-21T04:55:04;100265.50;;;20.87;51.75
59487;BME280;45298;54.918;73.504;2023-08-21T04:57:34;100265.25;;;20.98;50.83
59487;BME280;45298;54.918;73.504;2023-08-21T05:00:07;100262.03;;;20.94;50.44
59487;BME280;45298;54.918;73.504;2023-08-21T05:02:39;100230.81;;;20.92;50.20
59487;BME280;45298;54.918;73.504;2023-08-21T05:05:08;100260.09;;;21.39;49.93
59487;BME280;45298;54.918;73.504;2023-08-21T05:07:37;100267.50;;;21.37;49.32
59487;BME280;45298;54.918;73.504;2023-08-21T05:10:06;100247.41;;;21.32;49.65
59487;BME280;45298;54.918;73.504;2023-08-21T05:12:36;100265.63;;;21.38;49.45
59487;BME280;45298;54.918;73.504;2023-08-21T05:15:06;100248.63;;;21.37;49.67
59487;BME280;45298;54.918;73.504;2023-08-21T05:17:35;100248.38;;;21.57;48.87
59487;BME280;45298;54.918;73.504;2023-08-21T05:20:04;100261.53;;;21.60;48.57
59487;BME280;45298;54.918;73.504;2023-08-21T05:22:33;100241.16;;;21.31;48.87
59487;BME280;45298;54.918;73.504;2023-08-21T05:25:02;100241.66;;;21.00;49.23
59487;BME280;45298;54.918;73.504;2023-08-21T05:27:31;100201.91;;;20.58;50.01
59487;BME280;45298;54.918;73.504;2023-08-21T05:30:00;100245.09;;;20.84;50.87
59487;BME280;45298;54.918;73.504;2023-08-21T05:32:31;100245.47;;;20.89;50.54
59487;BME280;45298;54.918;73.504;2023-08-21T05:35:00;100240.25;;;20.88;49.65
59487;BME280;45298;54.918;73.504;2023-08-21T05:37:30;100243.25;;;20.85;50.17
59487;BME280;45298;54.918;73.504;2023-08-21T05:40:00;100246.19;;;20.99;50.47
59487;BME280;45298;54.918;73.504;2023-08-21T05:42:32;100238.91;;;20.92;50.13
59487;BME280;45298;54.918;73.504;2023-08-21T05:45:01;100201.13;;;20.65;50.08
59487;BME280;45298;54.918;73.504;2023-08-21T05:47:33;100235.31;;;20.83;50.61
59487;BME280;45298;54.918;73.504;2023-08-21T05:50:02;100235.38;;;20.73;50.84
59487;BME280;45298;54.918;73.504;2023-08-21T05:52:32;100206.88;;;20.44;51.08
59487;BME280;45298;54.918;73.504;2023-08-21T05:55:01;100237.78;;;20.76;51.35
59487;BME280;45298;54.918;73.504;2023-08-21T05:57:30;100240.25;;;20.88;50.25
59487;BME280;45298;54.918;73.504;2023-08-21T05:59:59;100204.03;;;20.90;50.14
59487;BME280;45298;54.918;73.504;2023-08-21T06:02:29;100224.69;;;21.08;49.81
59487;BME280;45298;54.918;73.504;2023-08-21T06:04:58;100209.31;;;21.00;48.98
59487;BME280;45298;54.918;73.504;2023-08-21T06:07:28;100190.56;;;20.90;49.28
59487;BME280;45298;54.918;73.504;2023-08-21T06:09:56;100230.06;;;21.34;49.43
59487;BME280;45298;54.918;73.504;2023-08-21T06:12:25;100214.50;;;21.28;49.57
59487;BME280;45298;54.918;73.504;2023-08-21T06:14:56;100222.44;;;21.29;48.84
59487;BME280;45298;54.918;73.504;2023-08-21T06:17:27;100220.47;;;21.05;49.71
59487;BME280;45298;54.918;73.504;2023-08-21T06:19:56;100202.44;;;21.06;49.54
59487;BME280;45298;54.918;73.504;2023-08-21T06:22:25;100217.88;;;21.30;49.74
59487;BME280;45298;54.918;73.504;2023-08-21T06:24:54;100219.63;;;21.39;50.05
59487;BME280;45298;54.918;73.504;2023-08-21T06:27:23;100204.34;;;21.56;48.74
59487;BME280;45298;54.918;73.504;2023-08-21T06:29:52;100215.56;;;21.70;48.47
59487;BME280;45298;54.918;73.504;2023-08-21T06:32:21;100219.81;;;21.81;48.88
59487;BME280;45298;54.918;73.504;2023-08-21T06:34:51;100220.84;;;21.96;48.00
59487;BME280;45298;54.918;73.504;2023-08-21T06:37:20;100214.25;;;21.91;47.80
59487;BME280;45298;54.918;73.504;2023-08-21T06:39:49;100219.19;;;22.03;47.57
59487;BME280;45298;54.918;73.504;2023-08-21T06:42:18;100206.69;;;22.11;46.46
59487;BME280;45298;54.918;73.504;2023-08-21T06:47:19;100181.38;;;22.37;46.49
59487;BME280;45298;54.918;73.504;2023-08-21T06:49:47;100191.66;;;22.16;47.01
59487;BME280;45298;54.918;73.504;2023-08-21T06:52:17;100194.25;;;22.51;46.96
59487;BME280;45298;54.918;73.504;2023-08-21T06:54:46;100191.72;;;22.49;45.47
59487;BME280;45298;54.918;73.504;2023-08-21T06:57:15;100178.66;;;22.28;45.95
59487;BME280;45298;54.918;73.504;2023-08-21T06:59:44;100163.00;;;22.32;45.65
59487;BME280;45298;54.918;73.504;2023-08-21T07:02:13;100181.72;;;22.17;46.06
59487;BME280;45298;54.918;73.504;2023-08-21T07:04:42;100173.94;;;22.14;46.54
59487;BME280;45298;54.918;73.504;2023-08-21T07:07:11;100164.50;;;22.51;46.02
59487;BME280;45298;54.918;73.504;2023-08-21T07:09:40;100178.63;;;22.86;45.79
59487;BME280;45298;54.918;73.504;2023-08-21T07:12:08;100169.16;;;22.99;44.33
59487;BME280;45298;54.918;73.504;2023-08-21T07:14:37;100156.66;;;22.89;43.76
59487;BME280;45298;54.918;73.504;2023-08-21T07:17:06;100161.91;;;22.91;44.40
59487;BME280;45298;54.918;73.504;2023-08-21T07:19:35;100158.81;;;23.02;43.46
59487;BME280;45298;54.918;73.504;2023-08-21T07:22:04;100142.41;;;23.12;43.77
59487;BME280;45298;54.918;73.504;2023-08-21T07:24:32;100116.34;;;23.11;42.74
59487;BME280;45298;54.918;73.504;2023-08-21T07:27:01;100148.56;;;23.37;44.21
59487;BME280;45298;54.918;73.504;2023-08-21T07:29:30;100149.38;;;23.46;42.81
59487;BME280;45298;54.918;73.504;2023-08-21T07:31:59;100155.06;;;23.60;42.39
59487;BME280;45298;54.918;73.504;2023-08-21T07:34:28;100159.03;;;23.72;42.25
59487;BME280;45298;54.918;73.504;2023-08-21T07:36:57;100153.75;;;23.79;42.07
59487;BME280;45298;54.918;73.504;2023-08-21T07:39:25;100145.81;;;23.77;41.93
59487;BME280;45298;54.918;73.504;2023-08-21T07:41:54;100141.28;;;23.69;42.19
59487;BME280;45298;54.918;73.504;2023-08-21T07:44:23;100139.41;;;23.70;42.21
59487;BME280;45298;54.918;73.504;2023-08-21T07:46:52;100138.09;;;23.66;41.78
59487;BME280;45298;54.918;73.504;2023-08-21T07:49:21;100150.44;;;23.68;41.30
59487;BME280;45298;54.918;73.504;2023-08-21T07:51:49;100139.56;;;23.45;41.12
59487;BME280;45298;54.918;73.504;2023-08-21T07:54:18;100127.41;;;23.41;41.26
59487;BME280;45298;54.918;73.504;2023-08-21T07:56:47;100123.59;;;23.59;40.81
59487;BME280;45298;54.918;73.504;2023-08-21T07:59:18;100133.66;;;23.73;40.94
59487;BME280;45298;54.918;73.504;2023-08-21T08:01:48;100126.22;;;23.67;40.55
59487;BME280;45298;54.918;73.504;2023-08-21T08:04:17;100128.03;;;23.51;41.12
59487;BME280;45298;54.918;73.504;2023-08-21T08:06:46;100116.81;;;23.63;40.90
59487;BME280;45298;54.918;73.504;2023-08-21T08:09:15;100123.41;;;23.83;40.59
59487;BME280;45298;54.918;73.504;2023-08-21T08:11:44;100125.97;;;24.08;40.72
59487;BME280;45298;54.918;73.504;2023-08-21T08:14:13;100124.91;;;24.33;39.90
59487;BME280;45298;54.918;73.504;2023-08-21T08:16:42;100133.16;;;24.54;39.47
59487;BME280;45298;54.918;73.504;2023-08-21T08:19:11;100129.50;;;24.32;39.14
59487;BME280;45298;54.918;73.504;2023-08-21T08:21:39;100128.75;;;24.00;39.81
59487;BME280;45298;54.918;73.504;2023-08-21T08:24:08;100122.81;;;23.96;39.90
59487;BME280;45298;54.918;73.504;2023-08-21T08:26:37;100124.53;;;24.21;40.48
59487;BME280;45298;54.918;73.504;2023-08-21T08:29:05;100075.75;;;24.21;38.45
59487;BME280;45298;54.918;73.504;2023-08-21T08:31:37;100111.38;;;24.48;38.79
59487;BME280;45298;54.918;73.504;2023-08-21T08:34:07;100099.31;;;24.65;38.53
59487;BME280;45298;54.918;73.504;2023-08-21T08:36:36;100101.06;;;24.81;38.13
59487;BME280;45298;54.918;73.504;2023-08-21T08:39:04;100098.78;;;24.85;37.26
59487;BME280;45298;54.918;73.504;2023-08-21T08:41:58;100104.50;;;24.75;37.05
59487;BME280;45298;54.918;73.504;2023-08-21T08:44:28;100089.50;;;24.64;37.73
59487;BME280;45298;54.918;73.504;2023-08-21T08:46:59;100096.06;;;24.70;38.10
59487;BME280;45298;54.918;73.504;2023-08-21T08:49:30;100063.97;;;24.28;38.41
59487;BME280;45298;54.918;73.504;2023-08-21T08:52:00;100076.69;;;24.28;38.05
59487;BME280;45298;54.918;73.504;2023-08-21T08:54:30;100077.78;;;24.19;38.68
59487;BME280;45298;54.918;73.504;2023-08-21T08:56:59;100088.44;;;24.20;39.29
59487;BME280;45298;54.918;73.504;2023-08-21T08:59:32;100081.50;;;24.03;39.36
59487;BME280;45298;54.918;73.504;2023-08-21T09:02:01;100077.31;;;23.92;38.94
59487;BME280;45298;54.918;73.504;2023-08-21T09:04:31;100078.94;;;23.78;39.02
59487;BME280;45298;54.918;73.504;2023-08-21T09:07:10;100088.75;;;23.79;38.60
59487;BME280;45298;54.918;73.504;2023-08-21T09:09:40;100096.94;;;23.94;39.06
59487;BME280;45298;54.918;73.504;2023-08-21T09:12:13;100020.47;;;23.68;38.71
59487;BME280;45298;54.918;73.504;2023-08-21T09:14:43;100074.06;;;24.20;38.25
59487;BME280;45298;54.918;73.504;2023-08-21T09:17:19;100079.59;;;24.41;37.71
59487;BME280;45298;54.918;73.504;2023-08-21T09:19:48;100061.19;;;24.22;38.17
59487;BME280;45298;54.918;73.504;2023-08-21T09:22:17;100072.00;;;24.22;38.04
59487;BME280;45298;54.918;73.504;2023-08-21T09:25:03;100072.56;;;24.32;39.43
59487;BME280;45298;54.918;73.504;2023-08-21T09:27:37;100082.59;;;24.47;38.83
59487;BME280;45298;54.918;73.504;2023-08-21T09:30:11;100020.66;;;24.05;37.96
59487;BME280;45298;54.918;73.504;2023-08-21T09:33:04;100090.91;;;24.45;38.73
59487;BME280;45298;54.918;73.504;2023-08-21T09:35:36;100068.94;;;24.40;38.53
59487;BME280;45298;54.918;73.504;2023-08-21T09:38:06;100080.91;;;24.31;38.35
59487;BME280;45298;54.918;73.504;2023-08-21T09:40:39;100032.88;;;23.63;39.45
59487;BME280;45298;54.918;73.504;2023-08-21T09:43:10;100058.06;;;23.87;39.26
59487;BME280;45298;54.918;73.504;2023-08-21T09:45:46;100056.63;;;23.99;38.95
59487;BME280;45298;54.918;73.504;2023-08-21T09:48:15;100048.41;;;24.07;39.00
59487;BME280;45298;54.918;73.504;2023-08-21T09:50:46;100051.06;;;24.16;39.41
59487;BME280;45298;54.918;73.504;2023-08-21T09:53:15;100033.38;;;24.05;39.05
59487;BME280;45298;54.918;73.504;2023-08-21T09:55:44;100036.31;;;23.95;38.78
59487;BME280;45298;54.918;73.504;2023-08-21T09:58:13;100049.00;;;23.94;39.46
59487;BME280;45298;54.918;73.504;2023-08-21T10:00:43;100037.00;;;23.97;39.69
59487;BME280;45298;54.918;73.504;2023-08-21T10:03:13;100027.88;;;23.98;40.06
59487;BME280;45298;54.918;73.504;2023-08-21T10:05:43;100028.44;;;24.08;39.81
59487;BME280;45298;54.918;73.504;2023-08-21T10:08:13;100036.38;;;24.10;39.26
59487;BME280;45298;54.918;73.504;2023-08-21T10:10:44;100036.25;;;24.03;39.37
59487;BME280;45298;54.918;73.504;2023-08-21T10:13:15;100024.97;;;23.99;39.08
59487;BME280;45298;54.918;73.504;2023-08-21T10:15:45;100005.34;;;23.97;38.68
59487;BME280;45298;54.918;73.504;2023-08-21T10:18:35;100010.75;;;23.97;38.66
59487;BME280;45298;54.918;73.504;2023-08-21T10:21:14;100006.22;;;23.90;38.79
59487;BME280;45298;54.918;73.504;2023-08-21T10:23:48;100017.28;;;24.03;39.79
59487;BME280;45298;54.918;73.504;2023-08-21T10:26:21;100006.00;;;23.99;39.01
59487;BME280;45298;54.918;73.504;2023-08-21T10:28:52;100018.34;;;24.02;38.71
59487;BME280;45298;54.918;73.504;2023-08-21T10:31:41;100000.50;;;23.84;38.86
59487;BME280;45298;54.918;73.504;2023-08-21T10:34:12;100007.25;;;23.89;38.98
59487;BME280;45298;54.918;73.504;2023-08-21T10:39:23;100008.72;;;23.76;38.85
59487;BME280;45298;54.918;73.504;2023-08-21T10:41:54;100008.91;;;23.51;38.83
59487;BME280;45298;54.918;73.504;2023-08-21T10:47:21;100003.88;;;23.48;40.06
59487;BME280;45298;54.918;73.504;2023-08-21T10:50:00;99990.69;;;23.45;40.18
59487;BME280;45298;54.918;73.504;2023-08-21T10:52:31;99947.56;;;23.20;40.28
59487;BME280;45298;54.918;73.504;2023-08-21T10:55:02;99978.56;;;23.41;40.35
59487;BME280;45298;54.918;73.504;2023-08-21T10:57:34;99984.34;;;23.38;40.48
59487;BME280;45298;54.918;73.504;2023-08-21T11:00:06;99979.63;;;23.32;39.83
59487;BME280;45298;54.918;73.504;2023-08-21T11:02:43;99975.31;;;23.22;39.94
59487;BME280;45298;54.918;73.504;2023-08-21T11:05:13;99977.34;;;23.20;40.14
59487;BME280;45298;54.918;73.504;2023-08-21T11:07:44;99981.06;;;23.19;40.46
59487;BME280;45298;54.918;73.504;2023-08-21T11:10:19;99979.72;;;23.15;40.19
59487;BME280;45298;54.918;73.504;2023-08-21T11:12:54;99968.22;;;23.21;40.44
59487;BME280;45298;54.918;73.504;2023-08-21T11:15:28;99969.13;;;23.37;40.27
59487;BME280;45298;54.918;73.504;2023-08-21T11:17:58;99953.34;;;23.41;40.33
59487;BME280;45298;54.918;73.504;2023-08-21T11:20:33;99956.53;;;23.44;39.87
59487;BME280;45298;54.918;73.504;2023-08-21T11:23:04;99948.13;;;23.39;39.73
59487;BME280;45298;54.918;73.504;2023-08-21T11:25:40;99944.09;;;23.35;39.21
59487;BME280;45298;54.918;73.504;2023-08-21T11:28:09;99953.25;;;23.34;39.82
59487;BME280;45298;54.918;73.504;2023-08-21T11:30:38;99937.91;;;23.26;39.67
59487;BME280;45298;54.918;73.504;2023-08-21T11:33:13;99940.63;;;23.18;39.76
59487;BME280;45298;54.918;73.504;2023-08-21T11:35:42;99929.53;;;23.13;40.41
59487;BME280;45298;54.918;73.504;2023-08-21T11:38:22;99934.03;;;23.20;39.98
59487;BME280;45298;54.918;73.504;2023-08-21T11:40:53;99938.38;;;23.30;40.32
59487;BME280;45298;54.918;73.504;2023-08-21T11:43:24;99934.50;;;23.32;39.57
59487;BME280;45298;54.918;73.504;2023-08-21T11:46:03;99932.91;;;23.38;39.28
59487;BME280;45298;54.918;73.504;2023-08-21T11:48:32;99923.13;;;23.37;39.37
59487;BME280;45298;54.918;73.504;2023-08-21T11:51:01;99900.50;;;23.30;38.91
59487;BME280;45298;54.918;73.504;2023-08-21T11:53:38;99903.88;;;23.32;38.91
59487;BME280;45298;54.918;73.504;2023-08-21T11:56:12;99899.59;;;23.37;39.15
59487;BME280;45298;54.918;73.504;2023-08-21T11:58:45;99909.88;;;23.42;38.81
59487;BME280;45298;54.918;73.504;2023-08-21T12:01:21;99905.19;;;23.36;37.46
59487;BME280;45298;54.918;73.504;2023-08-21T12:03:51;99894.63;;;23.26;38.40
59487;BME280;45298;54.918;73.504;2023-08-21T12:06:24;99917.22;;;23.33;39.13
59487;BME280;45298;54.918;73.504;2023-08-21T12:08:54;99881.78;;;23.20;39.15
59487;BME280;45298;54.918;73.504;2023-08-21T12:11:26;99890.22;;;23.25;39.44
59487;BME280;45298;54.918;73.504;2023-08-21T12:13:55;99902.38;;;23.29;39.29
59487;BME280;45298;54.918;73.504;2023-08-21T12:16:24;99848.13;;;22.99;39.64
59487;BME280;45298;54.918;73.504;2023-08-21T12:18:53;99882.63;;;23.20;39.25
59487;BME280;45298;54.918;73.504;2023-08-21T12:21:25;99881.97;;;23.18;38.07
59487;BME280;45298;54.918;73.504;2023-08-21T12:23:54;99873.56;;;23.13;37.52
59487;BME280;45298;54.918;73.504;2023-08-21T12:26:23;99876.06;;;23.15;38.30
59487;BME280;45298;54.918;73.504;2023-08-21T12:29:03;99876.25;;;23.13;37.75
59487;BME280;45298;54.918;73.504;2023-08-21T12:31:32;99865.50;;;23.05;38.00
59487;BME280;45298;54.918;73.504;2023-08-21T12:34:01;99879.69;;;23.07;37.80
59487;BME280;45298;54.918;73.504;2023-08-21T12:36:30;99867.94;;;23.00;37.35
59487;BME280;45298;54.918;73.504;2023-08-21T12:38:59;99880.44;;;23.01;37.34
59487;BME280;45298;54.918;73.504;2023-08-21T12:41:28;99834.69;;;22.68;37.84
59487;BME280;45298;54.918;73.504;2023-08-21T12:43:56;99882.81;;;22.96;38.36
59487;BME280;45298;54.918;73.504;2023-08-21T12:46:25;99880.47;;;22.92;38.16
59487;BME280;45298;54.918;73.504;2023-08-21T12:48:56;99861.63;;;22.84;38.52
59487;BME280;45298;54.918;73.504;2023-08-21T12:51:25;99865.88;;;22.78;38.18
59487;BME280;45298;54.918;73.504;2023-08-21T12:53:55;99870.44;;;22.78;38.43
59487;BME280;45298;54.918;73.504;2023-08-21T12:56:24;99865.75;;;22.72;39.09
59487;BME280;45298;54.918;73.504;2023-08-21T12:58:52;99857.19;;;22.60;39.15
59487;BME280;45298;54.918;73.504;2023-08-21T13:01:21;99857.41;;;22.58;38.89
59487;BME280;45298;54.918;73.504;2023-08-21T13:03:50;99845.44;;;22.53;39.71
59487;BME280;45298;54.918;73.504;2023-08-21T13:06:19;99855.47;;;22.44;39.85
59487;BME280;45298;54.918;73.504;2023-08-21T13:08:48;99842.31;;;22.32;40.22
59487;BME280;45298;54.918;73.504;2023-08-21T13:11:17;99851.41;;;22.31;39.63
59487;BME280;45298;54.918;73.504;2023-08-21T13:13:45;99862.53;;;22.37;39.34